Time;durP1;ratioP1;P1;durP2;ratioP2;P2;SDS_P1;SDS_P2;PMS_P1;PMS_P2;Temp;Humidity;BMP_temperature;BMP_pressure;BME280_temperature;BME280_humidity;BME280_pressure;Samples;Min_cycle;Max_cycle;Signal;HPM_P1;HPM_P2
2021/08/15 00:00:44;;;;;;;6.90;3.10;;;21.80;62.30;;;;;;3184018;27;20068;-77
2021/08/15 00:02:16;;;;;;;8.40;3.20;;;21.90;62.20;;;;;;3183688;27;20051;-77
2021/08/15 00:03:51;;;;;;;11.63;3.35;;;21.90;62.00;;;;;;3175039;27;20426;-77
2021/08/15 00:05:23;;;;;;;8.15;3.17;;;21.90;62.00;;;;;;3173204;28;20044;-77
2021/08/15 00:06:57;;;;;;;9.73;3.30;;;22.00;62.00;;;;;;3172178;28;20043;-77
2021/08/15 00:08:32;;;;;;;10.48;3.45;;;21.90;61.90;;;;;;3173175;28;20118;-77
2021/08/15 00:10:04;;;;;;;9.68;3.20;;;21.90;61.90;;;;;;3173150;28;20048;-77
2021/08/15 00:11:36;;;;;;;11.98;3.72;;;21.90;61.90;;;;;;3163111;28;20052;-77
2021/08/15 00:13:08;;;;;;;10.90;3.97;;;21.90;62.00;;;;;;3173213;28;20051;-77
2021/08/15 00:14:41;;;;;;;8.15;3.22;;;21.90;62.20;;;;;;3171601;28;20051;-77
2021/08/15 00:16:12;;;;;;;;;;;21.80;62.10;;;;;;3172004;28;20431;-76
2021/08/15 00:17:44;;;;;;;8.20;3.10;;;21.80;62.20;;;;;;3173549;28;19920;-78
2021/08/15 00:19:17;;;;;;;10.95;3.33;;;21.90;62.20;;;;;;3182299;27;20051;-77
2021/08/15 00:20:52;;;;;;;8.98;3.40;;;21.90;62.30;;;;;;3160724;28;20067;-77
2021/08/15 00:22:23;;;;;;;7.75;3.03;;;21.90;62.30;;;;;;3158533;28;20052;-76
2021/08/15 00:23:58;;;;;;;8.90;3.33;;;21.90;62.10;;;;;;3160528;28;20101;-77
2021/08/15 00:25:30;;;;;;;8.45;3.30;;;21.90;62.10;;;;;;3159914;28;20048;-77
2021/08/15 00:27:01;;;;;;;9.00;3.05;;;21.90;62.20;;;;;;3158268;28;20054;-77
2021/08/15 00:28:33;;;;;;;8.35;3.03;;;21.90;62.10;;;;;;3160753;28;20059;-77
2021/08/15 00:30:06;;;;;;;11.48;3.70;;;21.90;62.00;;;;;;3160340;28;20702;-77
2021/08/15 00:31:38;;;;;;;7.55;3.35;;;21.90;62.10;;;;;;3160160;28;20044;-77
2021/08/15 00:33:10;;;;;;;5.88;3.03;;;21.80;62.20;;;;;;3160163;28;20055;-76
2021/08/15 00:34:43;;;;;;;8.80;3.50;;;21.90;62.20;;;;;;3159897;28;20083;-77
2021/08/15 00:36:15;;;;;;;6.65;3.20;;;21.90;62.30;;;;;;3163691;28;20454;-77
2021/08/15 00:37:50;;;;;;;7.43;3.50;;;21.90;62.30;;;;;;3170734;28;20062;-77
2021/08/15 00:39:23;;;;;;;11.68;3.08;;;21.90;62.20;;;;;;3170509;28;20051;-77
2021/08/15 00:40:55;;;;;;;8.15;2.78;;;21.90;62.30;;;;;;3171653;28;20064;-77
2021/08/15 00:42:27;;;;;;;8.20;3.30;;;21.80;62.30;;;;;;3172486;28;20492;-78
2021/08/15 00:44:00;;;;;;;10.20;3.40;;;21.80;62.50;;;;;;3171860;28;20047;-78
2021/08/15 00:45:32;;;;;;;;;;;21.80;62.40;;;;;;3176972;27;20480;-77
2021/08/15 00:47:04;;;;;;;7.40;3.40;;;21.80;62.40;;;;;;3183770;27;19923;-76
2021/08/15 00:48:36;;;;;;;9.82;3.13;;;21.70;62.60;;;;;;3184796;27;20047;-77
2021/08/15 00:50:12;;;;;;;9.57;3.55;;;21.70;62.80;;;;;;3184481;27;20058;-78
2021/08/15 00:51:44;;;;;;;7.55;3.30;;;21.70;62.70;;;;;;3184540;27;20053;-77
2021/08/15 00:53:15;;;;;;;6.90;2.92;;;21.70;62.80;;;;;;3177752;27;20484;-76
2021/08/15 00:54:47;;;;;;;11.38;3.35;;;21.70;62.70;;;;;;3171658;28;20058;-77
2021/08/15 00:56:20;;;;;;;8.52;3.20;;;21.70;62.80;;;;;;3172302;28;20225;-77
2021/08/15 00:57:51;;;;;;;9.80;3.17;;;21.70;62.80;;;;;;3171644;28;20055;-77
2021/08/15 00:59:23;;;;;;;7.82;2.97;;;21.60;62.90;;;;;;3172156;28;20047;-76
2021/08/15 01:00:55;;;;;;;9.75;3.47;;;21.60;62.90;;;;;;3163142;28;20048;-77
2021/08/15 01:02:27;;;;;;;10.20;3.17;;;21.70;62.90;;;;;;3158077;28;20101;-77
2021/08/15 01:04:03;;;;;;;9.02;3.40;;;21.70;62.90;;;;;;3158766;28;20055;-77
2021/08/15 01:05:36;;;;;;;8.90;3.42;;;21.60;63.00;;;;;;3158992;28;20051;-77
2021/08/15 01:07:10;;;;;;;10.93;3.50;;;21.60;63.10;;;;;;3163124;28;20059;-77
2021/08/15 01:08:42;;;;;;;9.65;3.35;;;21.60;63.10;;;;;;3171595;28;20048;-77
2021/08/15 01:10:14;;;;;;;9.10;3.05;;;21.60;63.10;;;;;;3172583;28;20052;-77
2021/08/15 01:11:48;;;;;;;8.20;3.10;;;21.60;63.10;;;;;;3169840;28;20043;-77
2021/08/15 01:13:20;;;;;;;9.02;3.42;;;21.60;63.10;;;;;;3159738;28;20056;-76
2021/08/15 01:14:52;;;;;;;9.32;3.38;;;21.60;63.10;;;;;;3159175;28;20705;-77
2021/08/15 01:16:23;;;;;;;10.77;3.25;;;21.60;63.00;;;;;;3159670;28;20040;-78
2021/08/15 01:17:56;;;;;;;12.45;3.65;;;21.70;62.90;;;;;;3164496;28;20044;-77
2021/08/15 01:19:29;;;;;;;10.25;3.30;;;21.60;62.80;;;;;;3170657;28;20048;-77
2021/08/15 01:21:04;;;;;;;;;;;21.60;62.70;;;;;;3173124;28;20458;-77
2021/08/15 01:22:36;;;;;;;11.57;3.70;;;21.60;62.90;;;;;;3171127;28;20317;-77
2021/08/15 01:24:08;;;;;;;12.02;3.67;;;21.60;63.00;;;;;;3171730;28;20066;-77
2021/08/15 01:25:44;;;;;;;10.40;3.33;;;21.50;63.00;;;;;;3171924;28;20069;-76
2021/08/15 01:27:18;;;;;;;9.68;3.50;;;21.50;63.10;;;;;;3170722;28;20047;-76
2021/08/15 01:28:51;;;;;;;7.60;3.13;;;21.60;63.10;;;;;;3172872;28;20054;-76
2021/08/15 01:30:26;;;;;;;9.52;3.42;;;21.60;63.10;;;;;;3173806;28;20058;-76
2021/08/15 01:31:58;;;;;;;9.70;3.88;;;21.60;63.10;;;;;;3174061;28;20040;-77
2021/08/15 01:33:29;;;;;;;8.90;3.03;;;21.50;63.20;;;;;;3172924;28;20062;-77
2021/08/15 01:35:01;;;;;;;8.48;3.47;;;21.50;63.20;;;;;;3171465;28;20394;-77
2021/08/15 01:36:33;;;;;;;12.93;3.35;;;21.50;63.30;;;;;;3171332;28;20044;-77
2021/08/15 01:38:07;;;;;;;8.15;2.95;;;21.40;63.20;;;;;;3160034;28;20500;-77
2021/08/15 01:39:39;;;;;;;8.27;3.28;;;21.50;63.30;;;;;;3159136;28;20135;-77
2021/08/15 01:41:11;;;;;;;13.40;3.30;;;21.50;63.10;;;;;;3146922;28;20044;-76
2021/08/15 01:42:42;;;;;;;10.38;3.25;;;21.50;63.10;;;;;;3146721;28;20063;-77
2021/08/15 01:44:15;;;;;;;8.57;3.15;;;21.50;63.30;;;;;;3148889;28;20055;-75
2021/08/15 01:45:52;;;;;;;12.60;3.42;;;21.50;63.20;;;;;;3164673;28;20044;-77
2021/08/15 01:47:24;;;;;;;10.15;2.92;;;21.50;63.10;;;;;;3164899;28;20137;-77
2021/08/15 01:48:56;;;;;;;7.85;3.03;;;21.50;63.10;;;;;;3159427;28;20485;-77
2021/08/15 01:50:28;;;;;;;8.67;3.00;;;21.50;63.10;;;;;;3159715;28;20048;-77
2021/08/15 01:52:01;;;;;;;9.23;3.53;;;21.50;63.00;;;;;;3158758;28;20278;-77
2021/08/15 01:53:33;;;;;;;9.32;3.22;;;21.50;63.00;;;;;;3159469;28;20488;-77
2021/08/15 01:55:09;;;;;;;8.13;3.22;;;21.50;62.90;;;;;;3158628;28;20048;-77
2021/08/15 01:56:41;;;;;;;9.00;2.88;;;21.60;63.00;;;;;;3158996;28;20386;-77
2021/08/15 01:58:13;;;;;;;9.43;3.03;;;21.50;62.90;;;;;;3159366;28;20054;-76
2021/08/15 01:59:46;;;;;;;10.35;2.80;;;21.50;62.90;;;;;;3160289;28;20064;-76
2021/08/15 02:01:21;;;;;;;8.65;3.13;;;21.60;62.90;;;;;;3158215;28;20048;-77
2021/08/15 02:02:56;;;;;;;6.00;2.83;;;21.60;62.90;;;;;;3159445;28;20097;-77
2021/08/15 02:04:27;;;;;;;9.82;3.08;;;21.60;62.90;;;;;;3160678;28;20048;-77
2021/08/15 02:05:59;;;;;;;8.00;3.20;;;21.60;62.90;;;;;;3160978;28;20056;-77
2021/08/15 02:07:30;;;;;;;8.27;2.83;;;21.50;62.90;;;;;;3160566;28;20520;-77
2021/08/15 02:09:02;;;;;;;9.45;3.15;;;21.60;62.90;;;;;;3161066;28;20052;-76
2021/08/15 02:10:33;;;;;;;7.97;2.97;;;21.60;62.80;;;;;;3161652;28;20420;-77
2021/08/15 02:12:05;;;;;;;8.57;2.90;;;21.60;62.80;;;;;;3160980;28;20047;-76
2021/08/15 02:13:40;;;;;;;9.18;3.28;;;21.60;62.60;;;;;;3160954;28;20048;-75
2021/08/15 02:15:13;;;;;;;8.40;2.90;;;21.60;62.70;;;;;;3159827;28;20109;-76
2021/08/15 02:16:51;;;;;;;10.60;3.25;;;21.60;62.70;;;;;;3159592;28;20044;-76
2021/08/15 02:18:22;;;;;;;8.85;3.15;;;21.50;62.70;;;;;;3161097;28;20058;-77
2021/08/15 02:19:56;;;;;;;8.70;3.20;;;21.50;62.70;;;;;;3161094;28;20074;-77
2021/08/15 02:21:27;;;;;;;7.20;3.10;;;21.60;62.70;;;;;;3161338;28;20051;-77
2021/08/15 02:22:59;;;;;;;8.02;2.88;;;21.50;62.60;;;;;;3161563;28;20052;-77
2021/08/15 02:24:31;;;;;;;8.63;3.05;;;21.50;62.60;;;;;;3160972;28;20200;-77
2021/08/15 02:26:03;;;;;;;9.77;3.30;;;21.50;62.70;;;;;;3161788;28;20506;-77
2021/08/15 02:27:39;;;;;;;6.47;2.72;;;21.50;62.70;;;;;;3160751;28;20048;-77
2021/08/15 02:29:14;;;;;;;8.57;3.40;;;21.60;62.70;;;;;;3160927;28;20417;-76
2021/08/15 02:30:47;;;;;;;9.55;3.53;;;21.50;62.50;;;;;;3160416;28;20047;-77
2021/08/15 02:32:18;;;;;;;9.57;2.90;;;21.50;62.60;;;;;;3159765;28;20043;-76
2021/08/15 02:33:50;;;;;;;7.40;3.17;;;21.50;62.70;;;;;;3160139;28;20485;-77
2021/08/15 02:35:22;;;;;;;8.35;3.17;;;21.60;62.60;;;;;;3160450;28;20500;-77
2021/08/15 02:36:54;;;;;;;8.40;3.47;;;21.50;62.60;;;;;;3159616;28;20080;-77
2021/08/15 02:38:25;;;;;;;6.97;3.00;;;21.50;62.60;;;;;;3160390;28;20130;-76
2021/08/15 02:39:59;;;;;;;8.02;2.88;;;21.50;62.60;;;;;;3160817;28;20394;-77
2021/08/15 02:41:30;;;;;;;7.35;2.97;;;21.50;62.70;;;;;;3160242;28;20048;-76
2021/08/15 02:43:02;;;;;;;9.63;3.58;;;21.50;62.70;;;;;;3174214;27;20043;-77
2021/08/15 02:44:34;;;;;;;9.32;3.10;;;21.40;62.70;;;;;;3168253;27;20131;-77
2021/08/15 02:46:08;;;;;;;8.50;3.33;;;21.40;62.70;;;;;;3159164;28;20040;-76
2021/08/15 02:47:39;;;;;;;8.93;3.20;;;21.50;62.80;;;;;;3156975;28;20067;-77
2021/08/15 02:49:11;;;;;;;8.35;3.45;;;21.40;62.90;;;;;;3164852;28;20048;-76
2021/08/15 02:50:43;;;;;;;8.60;3.28;;;21.40;63.00;;;;;;3160470;28;20051;-77
2021/08/15 02:52:15;;;;;;;8.63;2.90;;;21.40;63.10;;;;;;3159711;28;20052;-76
2021/08/15 02:53:46;;;;;;;9.70;3.45;;;21.40;63.20;;;;;;3160206;28;20044;-76
2021/08/15 02:55:18;;;;;;;10.13;3.33;;;21.40;63.20;;;;;;3160149;28;20458;-76
2021/08/15 02:56:50;;;;;;;9.15;3.20;;;21.30;63.30;;;;;;3159485;28;20052;-76
2021/08/15 02:58:22;;;;;;;7.60;3.08;;;21.30;63.50;;;;;;3160439;28;20498;-77
2021/08/15 02:59:53;;;;;;;8.60;3.03;;;21.30;63.60;;;;;;3160113;28;20051;-77
2021/08/15 03:01:26;;;;;;;10.52;3.50;;;21.30;63.90;;;;;;3159265;28;20055;-77
2021/08/15 03:02:58;;;;;;;10.70;3.33;;;21.30;64.10;;;;;;3159579;28;20424;-76
2021/08/15 03:04:30;;;;;;;8.82;3.25;;;21.20;64.20;;;;;;3159740;28;20052;-76
2021/08/15 03:06:01;;;;;;;6.90;3.17;;;21.30;64.30;;;;;;3160049;28;20497;-77
2021/08/15 03:07:33;;;;;;;9.13;3.35;;;21.20;64.30;;;;;;3159583;28;20554;-77
2021/08/15 03:09:05;;;;;;;8.35;3.45;;;21.20;64.40;;;;;;3160260;28;20048;-77
2021/08/15 03:10:37;;;;;;;11.52;3.28;;;21.20;64.60;;;;;;3160196;28;20060;-76
2021/08/15 03:12:08;;;;;;;7.47;3.17;;;21.20;64.80;;;;;;3159762;28;20405;-77
2021/08/15 03:13:39;;;;;;;8.10;3.17;;;21.20;64.90;;;;;;3160083;28;20044;-76
2021/08/15 03:15:12;;;;;;;11.48;3.70;;;21.20;65.00;;;;;;3158664;28;20044;-76
2021/08/15 03:16:45;;;;;;;;;;;21.20;65.10;;;;;;3160061;28;20036;-76
2021/08/15 03:18:18;;;;;;;9.07;3.03;;;21.10;65.50;;;;;;3158928;28;19978;-76
2021/08/15 03:19:49;;;;;;;9.30;3.83;;;21.10;65.80;;;;;;3147205;28;20052;-76
2021/08/15 03:21:24;;;;;;;8.82;3.90;;;21.10;65.70;;;;;;3147649;28;20053;-76
2021/08/15 03:22:56;;;;;;;9.73;3.85;;;21.10;65.90;;;;;;3146945;28;20049;-75
2021/08/15 03:24:27;;;;;;;6.88;3.40;;;21.10;65.90;;;;;;3146808;28;20474;-75
2021/08/15 03:25:59;;;;;;;9.35;3.47;;;21.20;65.90;;;;;;3150983;28;20044;-75
2021/08/15 03:27:31;;;;;;;8.82;3.60;;;21.10;66.10;;;;;;3159468;28;20097;-75
2021/08/15 03:29:03;;;;;;;8.30;3.50;;;21.10;66.30;;;;;;3159984;28;20048;-75
2021/08/15 03:30:34;;;;;;;6.93;3.03;;;21.10;66.40;;;;;;3159140;28;20097;-75
2021/08/15 03:32:08;;;;;;;9.57;3.67;;;21.10;66.50;;;;;;3158891;28;20044;-75
2021/08/15 03:33:39;;;;;;;9.00;3.50;;;21.10;66.50;;;;;;3159682;28;20493;-75
2021/08/15 03:35:11;;;;;;;8.15;3.47;;;21.10;66.50;;;;;;3159139;28;20189;-75
2021/08/15 03:36:43;;;;;;;6.93;3.08;;;21.10;66.50;;;;;;3159836;28;20609;-76
2021/08/15 03:38:15;;;;;;;7.85;3.65;;;21.00;66.80;;;;;;3159740;28;20051;-75
2021/08/15 03:39:46;;;;;;;8.10;3.45;;;21.00;66.90;;;;;;3159824;28;20055;-76
2021/08/15 03:41:18;;;;;;;8.50;3.50;;;21.00;66.90;;;;;;3159625;28;20047;-76
2021/08/15 03:42:50;;;;;;;7.97;3.35;;;21.00;66.80;;;;;;3158897;28;20105;-76
2021/08/15 03:44:21;;;;;;;8.90;3.60;;;21.00;66.90;;;;;;3159062;28;20048;-75
2021/08/15 03:45:53;;;;;;;6.78;3.33;;;21.00;66.90;;;;;;3158625;28;20043;-75
2021/08/15 03:47:31;;;;;;;6.10;3.38;;;21.00;67.00;;;;;;3158896;28;20089;-76
2021/08/15 03:49:03;;;;;;;8.52;3.47;;;21.00;67.10;;;;;;3159688;28;20052;-75
2021/08/15 03:50:34;;;;;;;5.93;3.25;;;21.00;67.20;;;;;;3159424;28;20052;-76
2021/08/15 03:52:06;;;;;;;6.05;3.33;;;21.00;67.20;;;;;;3159039;28;20036;-76
2021/08/15 03:53:38;;;;;;;7.83;3.37;;;21.00;67.20;;;;;;3159465;28;20048;-76
2021/08/15 03:55:11;;;;;;;6.85;3.00;;;21.00;67.90;;;;;;3158878;28;20059;-75
2021/08/15 03:56:43;;;;;;;;;;;21.00;67.20;;;;;;3159337;28;20056;-75
2021/08/15 03:58:14;;;;;;;7.60;3.17;;;21.00;67.40;;;;;;3159458;28;20296;-75
2021/08/15 03:59:46;;;;;;;8.93;3.88;;;21.10;67.00;;;;;;3159516;28;20051;-75
2021/08/15 04:01:18;;;;;;;6.63;3.25;;;21.10;67.10;;;;;;3158532;28;20390;-75
2021/08/15 04:02:51;;;;;;;8.18;3.70;;;21.10;67.00;;;;;;3158589;28;20466;-75
2021/08/15 04:04:23;;;;;;;5.57;3.22;;;21.10;66.90;;;;;;3158701;28;20067;-75
2021/08/15 04:05:56;;;;;;;7.93;3.35;;;21.10;66.80;;;;;;3159244;28;20139;-75
2021/08/15 04:07:28;;;;;;;7.35;3.38;;;21.10;66.90;;;;;;3158892;28;20051;-75
2021/08/15 04:09:01;;;;;;;6.00;3.00;;;21.10;66.80;;;;;;3159536;28;20048;-75
2021/08/15 04:10:32;;;;;;;8.52;3.53;;;21.20;66.80;;;;;;3159604;28;20476;-75
2021/08/15 04:12:04;;;;;;;4.47;2.78;;;21.10;66.90;;;;;;3158612;28;20123;-75
2021/08/15 04:13:36;;;;;;;6.95;3.45;;;21.10;66.90;;;;;;3159280;28;20055;-75
2021/08/15 04:15:08;;;;;;;8.55;3.25;;;21.20;66.80;;;;;;3158104;28;20047;-75
2021/08/15 04:16:40;;;;;;;5.85;2.92;;;21.20;66.80;;;;;;3158556;28;20040;-76
2021/08/15 04:18:13;;;;;;;5.43;3.20;;;21.20;66.60;;;;;;3159343;28;20099;-76
2021/08/15 04:19:45;;;;;;;5.88;2.83;;;21.20;66.70;;;;;;3159290;28;20056;-76
2021/08/15 04:21:16;;;;;;;6.22;2.90;;;21.20;66.50;;;;;;3159308;28;20044;-75
2021/08/15 04:22:48;;;;;;;5.82;3.25;;;21.30;66.50;;;;;;3158415;28;20048;-75
2021/08/15 04:24:20;;;;;;;8.10;3.53;;;21.20;66.50;;;;;;3158803;28;20047;-76
2021/08/15 04:25:52;;;;;;;6.65;3.10;;;21.20;66.70;;;;;;3158454;28;20058;-76
2021/08/15 04:27:23;;;;;;;6.22;3.30;;;21.20;66.70;;;;;;3158786;28;20044;-76
2021/08/15 04:28:55;;;;;;;5.75;3.38;;;21.20;66.70;;;;;;3159174;28;20489;-76
2021/08/15 04:30:27;;;;;;;6.20;3.42;;;21.20;66.90;;;;;;3158357;28;20051;-76
2021/08/15 04:31:58;;;;;;;5.60;2.95;;;21.20;66.80;;;;;;3158510;28;20040;-76
2021/08/15 04:33:31;;;;;;;5.72;2.92;;;21.20;66.90;;;;;;3158915;28;20044;-76
2021/08/15 04:35:03;;;;;;;5.10;3.05;;;21.20;66.80;;;;;;3158980;28;20039;-76
2021/08/15 04:36:35;;;;;;;5.72;3.20;;;21.20;66.90;;;;;;3158823;28;20093;-76
2021/08/15 04:38:07;;;;;;;5.63;3.28;;;21.20;67.00;;;;;;3159009;28;20052;-76
2021/08/15 04:39:38;;;;;;;5.45;3.40;;;21.10;66.90;;;;;;3158964;28;20056;-75
2021/08/15 04:41:10;;;;;;;5.20;3.17;;;21.20;66.90;;;;;;3158389;28;20044;-76
2021/08/15 04:42:41;;;;;;;5.10;3.05;;;21.20;66.80;;;;;;3158282;28;20040;-76
2021/08/15 04:44:13;;;;;;;5.93;2.85;;;21.20;66.80;;;;;;3158545;28;20067;-76
2021/08/15 04:45:46;;;;;;;5.18;3.08;;;21.20;66.70;;;;;;3157955;28;20043;-76
2021/08/15 04:47:17;;;;;;;7.18;3.78;;;21.20;66.60;;;;;;3158061;28;20044;-76
2021/08/15 04:48:50;;;;;;;6.88;3.30;;;21.20;66.80;;;;;;3159072;28;20062;-75
2021/08/15 04:50:22;;;;;;;4.97;3.00;;;21.20;66.80;;;;;;3158746;28;20052;-76
2021/08/15 04:51:55;;;;;;;5.47;2.92;;;21.20;66.70;;;;;;3158272;28;20056;-76
2021/08/15 04:53:28;;;;;;;6.05;3.17;;;21.20;67.00;;;;;;3158833;28;20071;-76
2021/08/15 04:54:59;;;;;;;6.63;3.33;;;21.20;66.90;;;;;;3158412;28;20466;-74
2021/08/15 04:56:31;;;;;;;4.53;2.95;;;21.20;67.00;;;;;;3158516;28;20075;-74
2021/08/15 04:58:03;;;;;;;5.60;3.10;;;21.20;66.90;;;;;;3158352;28;20393;-76
2021/08/15 04:59:35;;;;;;;4.25;2.90;;;21.10;67.10;;;;;;3158993;28;20052;-76
2021/08/15 05:01:07;;;;;;;5.88;2.85;;;21.10;67.20;;;;;;3157807;28;20051;-76
2021/08/15 05:02:38;;;;;;;6.15;3.20;;;21.10;67.20;;;;;;3158135;28;20070;-76
2021/08/15 05:04:11;;;;;;;6.65;3.50;;;21.10;67.20;;;;;;3158395;28;20044;-76
2021/08/15 05:05:43;;;;;;;5.93;3.13;;;21.10;67.10;;;;;;3158535;28;20394;-76
2021/08/15 05:07:15;;;;;;;4.78;3.10;;;21.10;67.10;;;;;;3158328;28;20048;-76
2021/08/15 05:08:46;;;;;;;6.00;3.10;;;21.20;67.20;;;;;;3158757;28;20063;-75
2021/08/15 05:10:18;;;;;;;5.32;2.60;;;21.10;67.00;;;;;;3158650;28;20055;-75
2021/08/15 05:11:50;;;;;;;5.82;3.17;;;21.20;66.90;;;;;;3158154;28;20409;-76
2021/08/15 05:13:21;;;;;;;7.05;3.13;;;21.20;67.10;;;;;;3158796;28;20052;-76
2021/08/15 05:14:52;;;;;;;4.70;2.70;;;21.10;67.20;;;;;;3157982;28;20052;-76
2021/08/15 05:16:24;;;;;;;5.90;3.30;;;21.10;67.20;;;;;;3157713;28;20181;-76
2021/08/15 05:17:55;;;;;;;4.88;3.03;;;21.10;67.40;;;;;;3158301;28;20044;-76
2021/08/15 05:19:30;;;;;;;6.20;3.28;;;21.10;67.40;;;;;;3158541;28;20051;-76
2021/08/15 05:21:02;;;;;;;4.88;3.00;;;21.10;67.40;;;;;;3158617;28;20460;-76
2021/08/15 05:22:35;;;;;;;6.90;2.90;;;21.10;67.60;;;;;;3158262;28;20515;-76
2021/08/15 05:24:07;;;;;;;;;;;21.10;67.50;;;;;;3158057;28;20114;-75
2021/08/15 05:25:38;;;;;;;8.73;2.88;;;21.20;67.50;;;;;;3157927;28;19920;-75
2021/08/15 05:27:10;;;;;;;10.82;2.80;;;21.20;67.40;;;;;;3157291;28;20048;-75
2021/08/15 05:28:42;;;;;;;4.93;2.83;;;21.30;67.00;;;;;;3153310;28;20519;-76
2021/08/15 05:30:14;;;;;;;6.93;2.80;;;21.40;66.50;;;;;;3157974;28;20094;-75
2021/08/15 05:31:46;;;;;;;9.17;2.90;;;21.50;66.00;;;;;;3158277;28;20051;-76
2021/08/15 05:33:18;;;;;;;7.95;3.05;;;21.50;66.20;;;;;;3168211;28;20294;-75
2021/08/15 05:34:51;;;;;;;6.85;2.80;;;21.50;65.90;;;;;;3160779;28;20040;-75
2021/08/15 05:36:22;;;;;;;4.80;2.50;;;21.50;65.70;;;;;;3157977;28;20592;-75
2021/08/15 05:37:54;;;;;;;6.93;2.95;;;21.50;65.70;;;;;;3157768;28;20044;-76
2021/08/15 05:39:26;;;;;;;7.53;3.13;;;21.60;65.80;;;;;;3161290;28;20100;-76
2021/08/15 05:40:57;;;;;;;4.95;2.65;;;21.60;65.60;;;;;;3160533;28;20052;-76
2021/08/15 05:42:29;;;;;;;4.95;2.67;;;21.60;65.50;;;;;;3160804;28;20052;-76
2021/08/15 05:44:01;;;;;;;6.70;2.67;;;21.70;65.90;;;;;;3160468;28;20508;-75
2021/08/15 05:45:32;;;;;;;10.15;2.95;;;21.60;65.80;;;;;;3159853;28;20489;-75
2021/08/15 05:47:04;;;;;;;4.82;2.42;;;21.60;66.20;;;;;;3159672;28;20044;-75
2021/08/15 05:48:36;;;;;;;9.82;3.00;;;21.60;65.80;;;;;;3161175;28;20090;-75
2021/08/15 05:50:10;;;;;;;10.73;2.72;;;21.70;65.70;;;;;;3161023;28;20056;-75
2021/08/15 05:51:42;;;;;;;6.15;2.63;;;21.60;65.80;;;;;;3160187;28;20071;-75
2021/08/15 05:53:14;;;;;;;7.20;3.00;;;21.70;65.70;;;;;;3160798;28;20036;-75
2021/08/15 05:54:45;;;;;;;11.27;2.95;;;21.60;65.80;;;;;;3160262;28;20051;-75
2021/08/15 05:56:17;;;;;;;8.35;2.67;;;21.70;66.10;;;;;;3160396;28;20081;-75
2021/08/15 05:57:49;;;;;;;8.20;2.65;;;21.60;66.10;;;;;;3159776;28;20489;-75
2021/08/15 05:59:20;;;;;;;6.18;2.75;;;21.70;65.90;;;;;;3160663;28;20063;-75
2021/08/15 06:00:52;;;;;;;6.00;2.63;;;21.60;66.00;;;;;;3159459;28;20079;-75
2021/08/15 06:02:24;;;;;;;11.18;2.97;;;21.70;66.00;;;;;;3160055;28;20036;-75
2021/08/15 06:03:55;;;;;;;7.97;2.63;;;21.60;66.20;;;;;;3160188;28;20040;-75
2021/08/15 06:05:28;;;;;;;6.72;2.80;;;21.70;66.20;;;;;;3160109;28;20056;-75
2021/08/15 06:07:00;;;;;;;3.67;2.40;;;21.60;66.20;;;;;;3159542;28;20496;-76
2021/08/15 06:08:32;;;;;;;6.05;2.47;;;21.60;66.20;;;;;;3160722;28;20123;-75
2021/08/15 06:10:04;;;;;;;5.20;2.90;;;21.60;66.00;;;;;;3160912;28;20397;-76
2021/08/15 06:11:36;;;;;;;7.55;2.40;;;21.70;66.20;;;;;;3159601;28;20048;-76
2021/08/15 06:13:09;;;;;;;6.25;2.65;;;21.60;66.20;;;;;;3160352;28;20044;-75
2021/08/15 06:14:40;;;;;;;;;;;21.60;67.00;;;;;;3160527;28;20052;-76
2021/08/15 06:16:12;;;;;;;5.75;2.53;;;21.70;66.00;;;;;;3168632;28;19920;-75
2021/08/15 06:17:44;;;;;;;3.70;2.47;;;21.60;66.10;;;;;;3162142;28;20047;-75
2021/08/15 06:19:16;;;;;;;8.07;2.67;;;21.60;66.10;;;;;;3160167;28;20052;-75
2021/08/15 06:20:49;;;;;;;6.68;2.45;;;21.60;66.00;;;;;;3160267;28;20105;-76
2021/08/15 06:22:20;;;;;;;4.00;2.40;;;21.70;66.20;;;;;;3159820;28;20120;-76
2021/08/15 06:23:52;;;;;;;4.90;2.78;;;21.60;66.10;;;;;;3159797;28;20043;-75
2021/08/15 06:25:24;;;;;;;4.07;2.33;;;21.70;66.20;;;;;;3160229;28;20459;-75
2021/08/15 06:26:56;;;;;;;5.30;2.50;;;21.70;66.20;;;;;;3159264;28;20044;-75
2021/08/15 06:28:27;;;;;;;5.57;2.60;;;21.70;66.20;;;;;;3172304;28;20043;-75
2021/08/15 06:29:59;;;;;;;5.53;2.70;;;21.70;66.00;;;;;;3160394;28;20057;-75
2021/08/15 06:31:31;;;;;;;3.80;2.40;;;21.70;67.00;;;;;;3159402;28;20078;-75
2021/08/15 06:33:03;;;;;;;8.85;2.58;;;21.60;66.20;;;;;;3159729;28;20064;-74
2021/08/15 06:34:34;;;;;;;5.75;2.50;;;21.60;66.50;;;;;;3159745;28;20071;-75
2021/08/15 06:36:07;;;;;;;4.38;2.30;;;21.60;66.80;;;;;;3160457;28;20044;-75
2021/08/15 06:37:39;;;;;;;4.68;2.70;;;21.60;66.80;;;;;;3159109;28;20048;-75
2021/08/15 06:39:11;;;;;;;6.18;2.35;;;21.60;66.90;;;;;;3160023;28;20087;-75
2021/08/15 06:40:43;;;;;;;3.85;2.35;;;21.60;66.50;;;;;;3159860;28;20489;-74
2021/08/15 06:42:14;;;;;;;4.45;2.55;;;21.60;66.60;;;;;;3159488;28;20048;-75
2021/08/15 06:43:46;;;;;;;9.35;2.58;;;21.60;66.40;;;;;;3160032;28;20055;-75
2021/08/15 06:45:18;;;;;;;3.47;2.42;;;21.60;66.50;;;;;;3158702;28;20113;-75
2021/08/15 06:46:50;;;;;;;4.00;2.42;;;21.60;66.30;;;;;;3159483;28;20513;-75
2021/08/15 06:48:22;;;;;;;3.25;2.10;;;21.60;66.70;;;;;;3159888;28;20070;-75
2021/08/15 06:49:54;;;;;;;3.08;2.20;;;21.60;66.30;;;;;;3159883;28;20432;-76
2021/08/15 06:51:27;;;;;;;4.32;2.20;;;21.60;66.60;;;;;;3159778;28;20105;-75
2021/08/15 06:52:59;;;;;;;3.28;2.13;;;21.60;66.50;;;;;;3159807;28;20109;-75
2021/08/15 06:54:31;;;;;;;4.68;2.40;;;21.60;66.20;;;;;;3159304;28;21074;-75
2021/08/15 06:56:05;;;;;;;4.82;2.50;;;21.60;66.30;;;;;;3159686;28;20054;-76
2021/08/15 06:57:37;;;;;;;4.47;2.40;;;21.70;66.80;;;;;;3165520;27;20065;-76
2021/08/15 06:59:09;;;;;;;3.03;2.17;;;21.60;66.80;;;;;;3174698;27;20052;-75
2021/08/15 07:00:41;;;;;;;3.60;2.20;;;21.60;66.90;;;;;;3158793;28;20040;-75
2021/08/15 07:02:12;;;;;;;3.38;2.10;;;21.60;66.90;;;;;;3159448;28;20051;-74
2021/08/15 07:03:44;;;;;;;7.53;2.42;;;21.60;66.60;;;;;;3159602;28;20071;-75
2021/08/15 07:05:16;;;;;;;5.43;2.47;;;21.60;66.80;;;;;;3159872;28;20048;-76
2021/08/15 07:06:49;;;;;;;3.08;2.28;;;21.60;66.80;;;;;;3159135;28;20048;-75
2021/08/15 07:08:21;;;;;;;5.75;2.20;;;21.60;66.70;;;;;;3160253;28;20052;-75
2021/08/15 07:09:53;;;;;;;3.08;2.08;;;21.60;66.70;;;;;;3160271;28;20413;-75
2021/08/15 07:11:24;;;;;;;3.80;2.25;;;21.60;66.80;;;;;;3159877;28;20052;-76
2021/08/15 07:12:58;;;;;;;3.20;2.30;;;21.60;66.50;;;;;;3159524;28;20073;-76
2021/08/15 07:14:29;;;;;;;3.63;2.20;;;21.60;66.50;;;;;;3159231;28;20051;-75
2021/08/15 07:16:02;;;;;;;4.07;2.30;;;21.60;66.90;;;;;;3166762;28;20069;-76
2021/08/15 07:17:37;;;;;;;4.15;2.30;;;21.60;66.90;;;;;;3163395;28;20513;-76
2021/08/15 07:19:09;;;;;;;2.97;2.13;;;21.60;67.00;;;;;;3159623;28;20063;-76
2021/08/15 07:20:40;;;;;;;3.78;2.25;;;21.60;66.90;;;;;;3160001;28;20100;-76
2021/08/15 07:22:13;;;;;;;3.78;2.30;;;21.60;66.90;;;;;;3159260;28;20554;-76
2021/08/15 07:23:45;;;;;;;3.95;2.22;;;21.60;66.70;;;;;;3159476;28;20036;-76
2021/08/15 07:25:17;;;;;;;4.03;2.30;;;21.60;66.90;;;;;;3159361;28;20044;-76
2021/08/15 07:26:49;;;;;;;2.97;2.10;;;21.60;66.80;;;;;;3159030;28;20124;-76
2021/08/15 07:28:20;;;;;;;2.90;2.10;;;21.60;66.90;;;;;;3159644;28;20043;-76
2021/08/15 07:29:52;;;;;;;9.93;2.50;;;21.60;66.60;;;;;;3159867;28;20051;-76
2021/08/15 07:31:24;;;;;;;8.35;2.65;;;21.60;67.00;;;;;;3170119;28;20515;-76
2021/08/15 07:32:56;;;;;;;5.22;2.30;;;21.70;66.40;;;;;;3172015;27;20039;-76
2021/08/15 07:34:28;;;;;;;5.35;2.63;;;21.60;66.30;;;;;;3171987;28;20043;-76
2021/08/15 07:36:00;;;;;;;3.85;2.55;;;21.70;66.20;;;;;;3171475;28;20142;-76
2021/08/15 07:37:33;;;;;;;6.45;2.70;;;21.70;66.70;;;;;;3171843;27;20050;-76
2021/08/15 07:39:05;;;;;;;4.93;2.25;;;21.70;66.80;;;;;;3171905;28;20043;-75
2021/08/15 07:40:36;;;;;;;15.18;2.90;;;21.70;66.80;;;;;;3166489;28;20047;-76
2021/08/15 07:42:08;;;;;;;13.95;2.50;;;21.80;66.80;;;;;;3171606;27;20056;-76
2021/08/15 07:43:40;;;;;;;10.48;2.40;;;21.90;67.30;;;;;;3172036;28;20044;-75
2021/08/15 07:45:12;;;;;;;7.68;2.40;;;22.00;66.50;;;;;;3170738;27;20075;-76
2021/08/15 07:46:44;;;;;;;7.25;2.50;;;22.00;67.10;;;;;;3169248;27;20705;-75
2021/08/15 07:48:16;;;;;;;8.80;2.50;;;22.00;67.20;;;;;;3172039;28;20507;-75
2021/08/15 07:49:48;;;;;;;9.98;2.45;;;22.10;67.80;;;;;;3172870;28;20044;-75
2021/08/15 07:51:20;;;;;;;12.38;2.25;;;22.40;67.50;;;;;;3168189;28;20048;-75
2021/08/15 07:52:53;;;;;;;15.40;2.10;;;22.60;67.00;;;;;;3161801;28;20052;-75
2021/08/15 07:54:24;;;;;;;;;;;22.90;66.50;;;;;;3171488;28;20485;-75
2021/08/15 07:55:56;;;;;;;8.32;2.30;;;23.20;65.90;;;;;;3171976;28;20139;-75
2021/08/15 07:57:30;;;;;;;8.55;2.38;;;23.40;65.60;;;;;;3171716;28;20416;-75
2021/08/15 07:59:02;;;;;;;9.73;1.70;;;23.60;65.20;;;;;;3171883;28;20102;-76
2021/08/15 08:00:34;;;;;;;11.35;2.20;;;23.70;64.80;;;;;;3164409;28;20547;-75